sensor_id;sensor_type;location;lat;lon;timestamp;temperature;humidity
34726;DHT22;20951;50.818;4.344;2023-03-21T00:01:12;11.60;99.90
34726;DHT22;20951;50.818;4.344;2023-03-21T00:03:38;11.50;99.90
34726;DHT22;20951;50.818;4.344;2023-03-21T00:06:06;11.40;99.90
34726;DHT22;20951;50.818;4.344;2023-03-21T00:08:32;11.40;99.90
34726;DHT22;20951;50.818;4.344;2023-03-21T00:11:00;11.30;99.90
34726;DHT22;20951;50.818;4.344;2023-03-21T00:13:28;11.30;99.90
34726;DHT22;20951;50.818;4.344;2023-03-21T00:16:18;11.30;99.90
34726;DHT22;20951;50.818;4.344;2023-03-21T00:18:45;11.30;99.90
34726;DHT22;20951;50.818;4.344;2023-03-21T00:21:16;11.30;99.90
34726;DHT22;20951;50.818;4.344;2023-03-21T00:23:42;11.30;99.90
34726;DHT22;20951;50.818;4.344;2023-03-21T00:26:09;11.50;99.90
34726;DHT22;20951;50.818;4.344;2023-03-21T00:28:36;11.60;99.90
34726;DHT22;20951;50.818;4.344;2023-03-21T00:31:03;11.40;99.90
34726;DHT22;20951;50.818;4.344;2023-03-21T00:33:29;11.40;99.90
34726;DHT22;20951;50.818;4.344;2023-03-21T00:35:56;11.50;99.90
34726;DHT22;20951;50.818;4.344;2023-03-21T00:38:23;11.50;99.90
34726;DHT22;20951;50.818;4.344;2023-03-21T00:40:49;11.30;99.90
34726;DHT22;20951;50.818;4.344;2023-03-21T00:43:16;11.30;99.90
34726;DHT22;20951;50.818;4.344;2023-03-21T00:45:46;11.20;99.90
34726;DHT22;20951;50.818;4.344;2023-03-21T00:48:12;11.30;99.90
34726;DHT22;20951;50.818;4.344;2023-03-21T00:50:39;11.30;99.90
34726;DHT22;20951;50.818;4.344;2023-03-21T00:53:05;11.40;99.90
34726;DHT22;20951;50.818;4.344;2023-03-21T00:55:32;11.30;99.90
34726;DHT22;20951;50.818;4.344;2023-03-21T00:57:58;11.30;99.90
34726;DHT22;20951;50.818;4.344;2023-03-21T01:00:24;11.30;99.90
34726;DHT22;20951;50.818;4.344;2023-03-21T01:02:50;11.30;99.90
34726;DHT22;20951;50.818;4.344;2023-03-21T01:05:27;11.20;99.90
34726;DHT22;20951;50.818;4.344;2023-03-21T01:08:14;11.20;99.90
34726;DHT22;20951;50.818;4.344;2023-03-21T01:10:45;11.30;99.90
34726;DHT22;20951;50.818;4.344;2023-03-21T01:13:13;11.20;99.90
34726;DHT22;20951;50.818;4.344;2023-03-21T01:15:45;11.20;99.90
34726;DHT22;20951;50.818;4.344;2023-03-21T01:18:12;11.30;99.90
34726;DHT22;20951;50.818;4.344;2023-03-21T01:20:42;11.30;99.90
34726;DHT22;20951;50.818;4.344;2023-03-21T01:23:09;11.20;99.90
34726;DHT22;20951;50.818;4.344;2023-03-21T01:25:35;11.20;99.90
34726;DHT22;20951;50.818;4.344;2023-03-21T01:28:01;11.30;99.90
34726;DHT22;20951;50.818;4.344;2023-03-21T01:30:27;11.40;99.90
34726;DHT22;20951;50.818;4.344;2023-03-21T01:32:53;11.40;99.90
34726;DHT22;20951;50.818;4.344;2023-03-21T01:35:19;11.40;99.90
34726;DHT22;20951;50.818;4.344;2023-03-21T01:37:45;11.30;99.90
34726;DHT22;20951;50.818;4.344;2023-03-21T01:40:24;11.40;99.90
34726;DHT22;20951;50.818;4.344;2023-03-21T01:42:50;11.40;99.90
34726;DHT22;20951;50.818;4.344;2023-03-21T01:48:20;11.50;99.90
34726;DHT22;20951;50.818;4.344;2023-03-21T01:50:48;11.60;99.90
34726;DHT22;20951;50.818;4.344;2023-03-21T01:53:15;11.40;99.90
34726;DHT22;20951;50.818;4.344;2023-03-21T01:55:42;11.50;99.90
34726;DHT22;20951;50.818;4.344;2023-03-21T01:58:09;11.40;99.90
34726;DHT22;20951;50.818;4.344;2023-03-21T02:00:37;11.50;99.90
34726;DHT22;20951;50.818;4.344;2023-03-21T02:03:06;11.50;99.90
34726;DHT22;20951;50.818;4.344;2023-03-21T02:08:21;11.40;99.90
34726;DHT22;20951;50.818;4.344;2023-03-21T02:10:48;11.50;99.90
34726;DHT22;20951;50.818;4.344;2023-03-21T02:13:16;11.60;99.90
34726;DHT22;20951;50.818;4.344;2023-03-21T02:15:57;11.60;99.90
34726;DHT22;20951;50.818;4.344;2023-03-21T02:18:58;11.70;99.90
34726;DHT22;20951;50.818;4.344;2023-03-21T02:27:16;11.60;99.90
34726;DHT22;20951;50.818;4.344;2023-03-21T02:29:48;11.50;99.90
34726;DHT22;20951;50.818;4.344;2023-03-21T02:35:24;11.50;99.90
34726;DHT22;20951;50.818;4.344;2023-03-21T02:38:04;11.70;99.90
34726;DHT22;20951;50.818;4.344;2023-03-21T02:40:38;11.70;99.90
34726;DHT22;20951;50.818;4.344;2023-03-21T02:45:57;11.70;99.90
34726;DHT22;20951;50.818;4.344;2023-03-21T02:48:31;11.80;99.90
34726;DHT22;20951;50.818;4.344;2023-03-21T02:50:59;11.80;99.90
34726;DHT22;20951;50.818;4.344;2023-03-21T02:53:30;11.80;99.90
34726;DHT22;20951;50.818;4.344;2023-03-21T02:55:59;11.90;99.90
34726;DHT22;20951;50.818;4.344;2023-03-21T02:58:27;11.80;99.90
34726;DHT22;20951;50.818;4.344;2023-03-21T03:00:54;11.90;99.90
34726;DHT22;20951;50.818;4.344;2023-03-21T03:03:22;11.90;99.90
34726;DHT22;20951;50.818;4.344;2023-03-21T03:05:51;12.00;99.90
34726;DHT22;20951;50.818;4.344;2023-03-21T03:08:29;11.90;99.90
34726;DHT22;20951;50.818;4.344;2023-03-21T03:11:22;11.90;99.90
34726;DHT22;20951;50.818;4.344;2023-03-21T03:14:00;11.90;99.90
34726;DHT22;20951;50.818;4.344;2023-03-21T03:19:31;12.00;99.90
34726;DHT22;20951;50.818;4.344;2023-03-21T03:22:09;11.90;99.90
34726;DHT22;20951;50.818;4.344;2023-03-21T03:25:06;11.90;99.90
34726;DHT22;20951;50.818;4.344;2023-03-21T03:27:39;12.00;99.90
34726;DHT22;20951;50.818;4.344;2023-03-21T03:30:07;12.00;99.90
34726;DHT22;20951;50.818;4.344;2023-03-21T03:32:47;12.00;99.90
34726;DHT22;20951;50.818;4.344;2023-03-21T03:35:15;11.90;99.90
34726;DHT22;20951;50.818;4.344;2023-03-21T03:37:46;11.80;99.90
34726;DHT22;20951;50.818;4.344;2023-03-21T03:40:38;11.70;99.90
34726;DHT22;20951;50.818;4.344;2023-03-21T03:43:10;11.70;99.90
34726;DHT22;20951;50.818;4.344;2023-03-21T03:45:49;11.70;99.90
34726;DHT22;20951;50.818;4.344;2023-03-21T03:48:40;11.70;99.90
34726;DHT22;20951;50.818;4.344;2023-03-21T03:51:16;11.80;99.90
34726;DHT22;20951;50.818;4.344;2023-03-21T03:53:48;11.80;99.90
34726;DHT22;20951;50.818;4.344;2023-03-21T03:56:16;11.70;99.90
34726;DHT22;20951;50.818;4.344;2023-03-21T03:58:43;11.80;99.90
34726;DHT22;20951;50.818;4.344;2023-03-21T04:01:09;11.80;99.90
34726;DHT22;20951;50.818;4.344;2023-03-21T04:03:37;11.70;99.90
34726;DHT22;20951;50.818;4.344;2023-03-21T04:06:04;11.70;99.90
34726;DHT22;20951;50.818;4.344;2023-03-21T04:08:30;11.60;99.90
34726;DHT22;20951;50.818;4.344;2023-03-21T04:10:56;11.70;99.90
34726;DHT22;20951;50.818;4.344;2023-03-21T04:13:23;11.70;99.90
34726;DHT22;20951;50.818;4.344;2023-03-21T04:15:49;11.80;99.90
34726;DHT22;20951;50.818;4.344;2023-03-21T04:18:15;11.80;99.90
34726;DHT22;20951;50.818;4.344;2023-03-21T04:20:41;11.70;99.90
34726;DHT22;20951;50.818;4.344;2023-03-21T04:23:09;11.80;99.90
34726;DHT22;20951;50.818;4.344;2023-03-21T04:25:37;11.80;99.90
34726;DHT22;20951;50.818;4.344;2023-03-21T04:28:03;11.70;99.90
34726;DHT22;20951;50.818;4.344;2023-03-21T04:30:29;11.70;99.90
34726;DHT22;20951;50.818;4.344;2023-03-21T04:32:59;11.80;99.90
34726;DHT22;20951;50.818;4.344;2023-03-21T04:35:26;11.80;99.90
34726;DHT22;20951;50.818;4.344;2023-03-21T04:37:53;11.90;99.90
34726;DHT22;20951;50.818;4.344;2023-03-21T04:40:19;11.80;99.90
34726;DHT22;20951;50.818;4.344;2023-03-21T04:42:46;11.80;99.90
34726;DHT22;20951;50.818;4.344;2023-03-21T04:45:13;11.80;99.90
34726;DHT22;20951;50.818;4.344;2023-03-21T04:47:40;11.80;99.90
34726;DHT22;20951;50.818;4.344;2023-03-21T04:50:07;11.80;99.90
34726;DHT22;20951;50.818;4.344;2023-03-21T04:52:33;11.80;99.90
34726;DHT22;20951;50.818;4.344;2023-03-21T04:54:59;11.80;99.90
34726;DHT22;20951;50.818;4.344;2023-03-21T04:57:26;11.80;99.90
34726;DHT22;20951;50.818;4.344;2023-03-21T04:59:52;11.80;99.90
34726;DHT22;20951;50.818;4.344;2023-03-21T05:02:18;11.90;99.90
34726;DHT22;20951;50.818;4.344;2023-03-21T05:04:44;11.90;99.90
34726;DHT22;20951;50.818;4.344;2023-03-21T05:07:10;11.90;99.90
34726;DHT22;20951;50.818;4.344;2023-03-21T05:09:36;12.00;99.90
34726;DHT22;20951;50.818;4.344;2023-03-21T05:12:02;11.90;99.90
34726;DHT22;20951;50.818;4.344;2023-03-21T05:14:28;11.90;99.90
34726;DHT22;20951;50.818;4.344;2023-03-21T05:16:54;11.90;99.90
34726;DHT22;20951;50.818;4.344;2023-03-21T05:19:27;11.90;99.90
34726;DHT22;20951;50.818;4.344;2023-03-21T05:22:10;12.00;99.90
34726;DHT22;20951;50.818;4.344;2023-03-21T05:24:36;12.00;99.90
34726;DHT22;20951;50.818;4.344;2023-03-21T05:27:06;11.70;99.90
34726;DHT22;20951;50.818;4.344;2023-03-21T05:29:33;11.80;99.90
34726;DHT22;20951;50.818;4.344;2023-03-21T05:32:00;11.90;99.90
34726;DHT22;20951;50.818;4.344;2023-03-21T05:34:27;12.00;99.90
34726;DHT22;20951;50.818;4.344;2023-03-21T05:36:53;12.00;99.90
34726;DHT22;20951;50.818;4.344;2023-03-21T05:39:19;11.90;99.90
34726;DHT22;20951;50.818;4.344;2023-03-21T05:41:45;12.00;99.90
34726;DHT22;20951;50.818;4.344;2023-03-21T05:44:11;11.90;99.90
34726;DHT22;20951;50.818;4.344;2023-03-21T05:46:37;11.90;99.90
34726;DHT22;20951;50.818;4.344;2023-03-21T05:49:03;12.00;99.90
34726;DHT22;20951;50.818;4.344;2023-03-21T05:51:29;12.10;99.90
34726;DHT22;20951;50.818;4.344;2023-03-21T05:53:55;12.10;99.90
34726;DHT22;20951;50.818;4.344;2023-03-21T05:56:21;11.90;99.90
34726;DHT22;20951;50.818;4.344;2023-03-21T05:58:47;11.80;99.90
34726;DHT22;20951;50.818;4.344;2023-03-21T06:01:13;11.60;99.90
34726;DHT22;20951;50.818;4.344;2023-03-21T06:03:39;11.60;99.90
34726;DHT22;20951;50.818;4.344;2023-03-21T06:06:06;11.50;99.90
34726;DHT22;20951;50.818;4.344;2023-03-21T06:08:32;11.40;99.90
34726;DHT22;20951;50.818;4.344;2023-03-21T06:10:58;11.30;99.90
34726;DHT22;20951;50.818;4.344;2023-03-21T06:13:24;11.10;99.90
34726;DHT22;20951;50.818;4.344;2023-03-21T06:15:50;11.10;99.90
34726;DHT22;20951;50.818;4.344;2023-03-21T06:18:16;11.10;99.90
34726;DHT22;20951;50.818;4.344;2023-03-21T06:20:42;11.00;99.90
34726;DHT22;20951;50.818;4.344;2023-03-21T06:23:08;10.90;99.90
34726;DHT22;20951;50.818;4.344;2023-03-21T06:25:34;10.80;99.90
34726;DHT22;20951;50.818;4.344;2023-03-21T06:27:59;10.80;99.90
34726;DHT22;20951;50.818;4.344;2023-03-21T06:30:25;10.80;99.90
34726;DHT22;20951;50.818;4.344;2023-03-21T06:32:51;10.70;99.90
34726;DHT22;20951;50.818;4.344;2023-03-21T06:35:18;10.70;99.90
34726;DHT22;20951;50.818;4.344;2023-03-21T06:37:50;10.60;99.90
34726;DHT22;20951;50.818;4.344;2023-03-21T06:40:18;10.50;99.90
34726;DHT22;20951;50.818;4.344;2023-03-21T06:42:47;10.60;99.90
34726;DHT22;20951;50.818;4.344;2023-03-21T06:45:15;10.60;99.90
34726;DHT22;20951;50.818;4.344;2023-03-21T06:47:43;10.60;99.90
34726;DHT22;20951;50.818;4.344;2023-03-21T06:50:10;10.60;99.90
34726;DHT22;20951;50.818;4.344;2023-03-21T06:52:38;10.60;99.90
34726;DHT22;20951;50.818;4.344;2023-03-21T06:55:07;10.70;99.90
34726;DHT22;20951;50.818;4.344;2023-03-21T06:57:35;10.80;99.90
34726;DHT22;20951;50.818;4.344;2023-03-21T07:00:03;10.80;99.90
34726;DHT22;20951;50.818;4.344;2023-03-21T07:02:32;10.80;99.90
34726;DHT22;20951;50.818;4.344;2023-03-21T07:05:00;10.80;99.90
34726;DHT22;20951;50.818;4.344;2023-03-21T07:07:28;10.80;99.90
34726;DHT22;20951;50.818;4.344;2023-03-21T07:09:59;10.90;99.90
34726;DHT22;20951;50.818;4.344;2023-03-21T07:12:27;10.90;99.90
34726;DHT22;20951;50.818;4.344;2023-03-21T07:14:55;11.00;99.90
34726;DHT22;20951;50.818;4.344;2023-03-21T07:17:23;10.90;99.90
34726;DHT22;20951;50.818;4.344;2023-03-21T07:19:50;11.00;99.90
34726;DHT22;20951;50.818;4.344;2023-03-21T07:22:17;11.00;99.90
34726;DHT22;20951;50.818;4.344;2023-03-21T07:24:43;11.10;99.90
34726;DHT22;20951;50.818;4.344;2023-03-21T07:27:13;11.20;99.90
34726;DHT22;20951;50.818;4.344;2023-03-21T07:29:39;11.20;99.90
34726;DHT22;20951;50.818;4.344;2023-03-21T07:32:06;11.30;99.90
34726;DHT22;20951;50.818;4.344;2023-03-21T07:34:33;11.40;99.90
34726;DHT22;20951;50.818;4.344;2023-03-21T07:36:59;11.40;99.90
34726;DHT22;20951;50.818;4.344;2023-03-21T07:39:26;11.50;99.90
34726;DHT22;20951;50.818;4.344;2023-03-21T07:41:52;11.40;99.90
34726;DHT22;20951;50.818;4.344;2023-03-21T07:44:22;11.50;99.90
34726;DHT22;20951;50.818;4.344;2023-03-21T07:46:48;11.50;99.90
34726;DHT22;20951;50.818;4.344;2023-03-21T07:49:14;11.50;99.90
34726;DHT22;20951;50.818;4.344;2023-03-21T07:51:43;11.50;99.90
34726;DHT22;20951;50.818;4.344;2023-03-21T07:54:09;11.50;99.90
34726;DHT22;20951;50.818;4.344;2023-03-21T07:56:35;11.40;99.90
34726;DHT22;20951;50.818;4.344;2023-03-21T07:59:01;11.50;99.90
34726;DHT22;20951;50.818;4.344;2023-03-21T08:01:26;11.30;99.90
34726;DHT22;20951;50.818;4.344;2023-03-21T08:03:52;11.30;99.90
34726;DHT22;20951;50.818;4.344;2023-03-21T08:06:22;11.40;99.90
34726;DHT22;20951;50.818;4.344;2023-03-21T08:08:51;11.40;99.90
34726;DHT22;20951;50.818;4.344;2023-03-21T08:11:20;11.50;99.90
34726;DHT22;20951;50.818;4.344;2023-03-21T08:13:47;11.50;99.90
34726;DHT22;20951;50.818;4.344;2023-03-21T08:16:16;11.60;99.90
34726;DHT22;20951;50.818;4.344;2023-03-21T08:18:43;11.70;99.90
34726;DHT22;20951;50.818;4.344;2023-03-21T08:21:11;11.70;99.90
34726;DHT22;20951;50.818;4.344;2023-03-21T08:23:38;11.80;99.90
34726;DHT22;20951;50.818;4.344;2023-03-21T08:26:04;11.70;99.90
34726;DHT22;20951;50.818;4.344;2023-03-21T08:28:31;11.80;99.90
34726;DHT22;20951;50.818;4.344;2023-03-21T08:30:58;11.80;99.90
34726;DHT22;20951;50.818;4.344;2023-03-21T08:33:26;11.80;99.90
34726;DHT22;20951;50.818;4.344;2023-03-21T08:35:54;11.70;99.90
34726;DHT22;20951;50.818;4.344;2023-03-21T08:38:24;11.70;99.90
34726;DHT22;20951;50.818;4.344;2023-03-21T08:40:55;11.60;99.90
34726;DHT22;20951;50.818;4.344;2023-03-21T08:43:22;11.70;99.90
34726;DHT22;20951;50.818;4.344;2023-03-21T08:45:50;11.70;99.90
34726;DHT22;20951;50.818;4.344;2023-03-21T08:48:18;11.80;99.90
34726;DHT22;20951;50.818;4.344;2023-03-21T08:50:46;12.00;99.90
34726;DHT22;20951;50.818;4.344;2023-03-21T08:53:13;12.10;99.90
34726;DHT22;20951;50.818;4.344;2023-03-21T08:55:42;12.10;99.90
34726;DHT22;20951;50.818;4.344;2023-03-21T08:58:09;12.40;99.90
34726;DHT22;20951;50.818;4.344;2023-03-21T09:00:37;12.40;99.90
34726;DHT22;20951;50.818;4.344;2023-03-21T09:03:04;12.70;99.90
34726;DHT22;20951;50.818;4.344;2023-03-21T09:05:32;12.90;99.90
34726;DHT22;20951;50.818;4.344;2023-03-21T09:07:59;12.90;99.90
34726;DHT22;20951;50.818;4.344;2023-03-21T09:10:29;12.90;99.90
34726;DHT22;20951;50.818;4.344;2023-03-21T09:12:56;12.80;99.90
34726;DHT22;20951;50.818;4.344;2023-03-21T09:15:28;12.80;99.90
34726;DHT22;20951;50.818;4.344;2023-03-21T09:17:57;12.80;99.90
34726;DHT22;20951;50.818;4.344;2023-03-21T09:23:23;12.60;99.90
34726;DHT22;20951;50.818;4.344;2023-03-21T09:25:49;12.60;99.90
34726;DHT22;20951;50.818;4.344;2023-03-21T09:28:15;12.60;99.90
34726;DHT22;20951;50.818;4.344;2023-03-21T09:30:41;12.50;99.90
34726;DHT22;20951;50.818;4.344;2023-03-21T09:33:08;12.60;99.90
34726;DHT22;20951;50.818;4.344;2023-03-21T09:35:43;12.60;99.90
34726;DHT22;20951;50.818;4.344;2023-03-21T09:38:09;12.70;99.90
34726;DHT22;20951;50.818;4.344;2023-03-21T09:41:54;12.80;99.90
34726;DHT22;20951;50.818;4.344;2023-03-21T09:44:25;12.80;99.90
34726;DHT22;20951;50.818;4.344;2023-03-21T09:47:23;13.10;99.90
34726;DHT22;20951;50.818;4.344;2023-03-21T09:55:08;13.50;99.90
34726;DHT22;20951;50.818;4.344;2023-03-21T09:57:53;13.40;99.90
34726;DHT22;20951;50.818;4.344;2023-03-21T10:00:27;13.50;99.90
34726;DHT22;20951;50.818;4.344;2023-03-21T10:03:00;13.50;99.90
34726;DHT22;20951;50.818;4.344;2023-03-21T10:05:30;13.40;99.90
34726;DHT22;20951;50.818;4.344;2023-03-21T10:08:02;13.50;99.90
34726;DHT22;20951;50.818;4.344;2023-03-21T10:10:50;13.50;99.90
34726;DHT22;20951;50.818;4.344;2023-03-21T10:13:31;13.70;99.90
34726;DHT22;20951;50.818;4.344;2023-03-21T10:16:01;13.70;99.90
34726;DHT22;20951;50.818;4.344;2023-03-21T10:18:35;13.60;99.90
34726;DHT22;20951;50.818;4.344;2023-03-21T10:21:04;13.70;99.90
34726;DHT22;20951;50.818;4.344;2023-03-21T10:23:30;13.80;99.90
34726;DHT22;20951;50.818;4.344;2023-03-21T10:26:01;13.70;99.90
34726;DHT22;20951;50.818;4.344;2023-03-21T10:28:35;13.70;99.90
34726;DHT22;20951;50.818;4.344;2023-03-21T10:31:07;13.70;99.90
34726;DHT22;20951;50.818;4.344;2023-03-21T10:33:39;13.80;99.90
34726;DHT22;20951;50.818;4.344;2023-03-21T10:36:27;13.90;99.90
34726;DHT22;20951;50.818;4.344;2023-03-21T10:39:02;14.30;99.90
34726;DHT22;20951;50.818;4.344;2023-03-21T10:41:30;14.60;99.90
34726;DHT22;20951;50.818;4.344;2023-03-21T10:46:31;15.20;99.90
34726;DHT22;20951;50.818;4.344;2023-03-21T10:48:58;15.30;99.90
34726;DHT22;20951;50.818;4.344;2023-03-21T10:51:31;15.00;99.90
34726;DHT22;20951;50.818;4.344;2023-03-21T10:54:12;15.20;99.90
34726;DHT22;20951;50.818;4.344;2023-03-21T10:56:56;15.40;99.90
34726;DHT22;20951;50.818;4.344;2023-03-21T10:59:24;15.80;99.90
34726;DHT22;20951;50.818;4.344;2023-03-21T11:01:52;16.20;99.90
34726;DHT22;20951;50.818;4.344;2023-03-21T11:04:23;15.90;99.90
34726;DHT22;20951;50.818;4.344;2023-03-21T11:06:55;16.10;99.90
34726;DHT22;20951;50.818;4.344;2023-03-21T11:09:23;16.10;99.90
34726;DHT22;20951;50.818;4.344;2023-03-21T11:12:01;16.20;99.90
34726;DHT22;20951;50.818;4.344;2023-03-21T11:14:31;16.60;99.90
34726;DHT22;20951;50.818;4.344;2023-03-21T11:16:58;16.40;99.90
34726;DHT22;20951;50.818;4.344;2023-03-21T11:19:32;16.10;99.90
34726;DHT22;20951;50.818;4.344;2023-03-21T11:22:06;16.20;99.90
34726;DHT22;20951;50.818;4.344;2023-03-21T11:24:32;16.30;99.90
34726;DHT22;20951;50.818;4.344;2023-03-21T11:26:58;15.90;99.90
34726;DHT22;20951;50.818;4.344;2023-03-21T11:29:32;15.70;99.90
34726;DHT22;20951;50.818;4.344;2023-03-21T11:32:29;15.30;99.90
34726;DHT22;20951;50.818;4.344;2023-03-21T11:35:27;15.40;99.90
34726;DHT22;20951;50.818;4.344;2023-03-21T11:37:53;15.10;99.90
34726;DHT22;20951;50.818;4.344;2023-03-21T11:40:28;15.90;99.90
34726;DHT22;20951;50.818;4.344;2023-03-21T11:42:59;16.10;99.90
34726;DHT22;20951;50.818;4.344;2023-03-21T11:45:33;16.40;99.90
34726;DHT22;20951;50.818;4.344;2023-03-21T11:48:11;17.10;99.90
34726;DHT22;20951;50.818;4.344;2023-03-21T11:50:41;17.20;99.90
34726;DHT22;20951;50.818;4.344;2023-03-21T12:07:00;16.90;99.90
34726;DHT22;20951;50.818;4.344;2023-03-21T12:10:08;16.80;99.90
34726;DHT22;20951;50.818;4.344;2023-03-21T12:12:59;16.20;99.90
34726;DHT22;20951;50.818;4.344;2023-03-21T12:15:39;15.70;99.90
34726;DHT22;20951;50.818;4.344;2023-03-21T12:21:25;15.40;99.90
34726;DHT22;20951;50.818;4.344;2023-03-21T12:35:09;15.90;99.90
34726;DHT22;20951;50.818;4.344;2023-03-21T12:40:16;15.50;99.90
34726;DHT22;20951;50.818;4.344;2023-03-21T12:42:58;15.30;99.90
34726;DHT22;20951;50.818;4.344;2023-03-21T12:45:34;15.10;99.90
34726;DHT22;20951;50.818;4.344;2023-03-21T12:48:35;15.30;99.90
34726;DHT22;20951;50.818;4.344;2023-03-21T12:51:06;15.70;99.90
34726;DHT22;20951;50.818;4.344;2023-03-21T12:53:49;16.00;99.90
34726;DHT22;20951;50.818;4.344;2023-03-21T12:56:21;16.00;99.90
34726;DHT22;20951;50.818;4.344;2023-03-21T12:58:53;16.00;99.90
34726;DHT22;20951;50.818;4.344;2023-03-21T13:01:22;16.20;99.90
34726;DHT22;20951;50.818;4.344;2023-03-21T13:04:29;15.90;99.90
34726;DHT22;20951;50.818;4.344;2023-03-21T13:07:00;15.90;99.90
34726;DHT22;20951;50.818;4.344;2023-03-21T13:09:32;15.80;99.90
34726;DHT22;20951;50.818;4.344;2023-03-21T13:12:04;16.00;99.90
34726;DHT22;20951;50.818;4.344;2023-03-21T13:14:37;16.20;99.90
34726;DHT22;20951;50.818;4.344;2023-03-21T13:17:21;16.40;99.90
34726;DHT22;20951;50.818;4.344;2023-03-21T13:20:52;16.70;99.90
34726;DHT22;20951;50.818;4.344;2023-03-21T13:22:58;17.20;99.90
34726;DHT22;20951;50.818;4.344;2023-03-21T13:25:24;17.00;99.90
34726;DHT22;20951;50.818;4.344;2023-03-21T13:28:02;16.90;99.90
34726;DHT22;20951;50.818;4.344;2023-03-21T13:30:29;16.70;99.90
34726;DHT22;20951;50.818;4.344;2023-03-21T13:33:35;16.40;99.90
34726;DHT22;20951;50.818;4.344;2023-03-21T13:36:07;16.50;99.90
34726;DHT22;20951;50.818;4.344;2023-03-21T13:38:35;16.70;99.90
34726;DHT22;20951;50.818;4.344;2023-03-21T13:41:13;16.70;99.90
34726;DHT22;20951;50.818;4.344;2023-03-21T13:43:52;16.60;99.90
34726;DHT22;20951;50.818;4.344;2023-03-21T13:48:57;16.10;99.90
34726;DHT22;20951;50.818;4.344;2023-03-21T13:59:17;16.00;99.90
34726;DHT22;20951;50.818;4.344;2023-03-21T14:02:12;16.00;99.90
34726;DHT22;20951;50.818;4.344;2023-03-21T14:04:43;15.80;99.90
34726;DHT22;20951;50.818;4.344;2023-03-21T14:07:36;15.40;99.90
34726;DHT22;20951;50.818;4.344;2023-03-21T14:10:16;15.40;99.90
34726;DHT22;20951;50.818;4.344;2023-03-21T14:12:43;15.50;99.90
34726;DHT22;20951;50.818;4.344;2023-03-21T14:15:21;15.20;99.90
34726;DHT22;20951;50.818;4.344;2023-03-21T14:17:53;15.40;99.90
34726;DHT22;20951;50.818;4.344;2023-03-21T14:20:25;15.10;99.90
34726;DHT22;20951;50.818;4.344;2023-03-21T14:22:52;15.00;99.90
34726;DHT22;20951;50.818;4.344;2023-03-21T14:25:21;15.00;99.90
34726;DHT22;20951;50.818;4.344;2023-03-21T14:27:52;15.10;99.90
34726;DHT22;20951;50.818;4.344;2023-03-21T14:30:54;15.20;99.90
34726;DHT22;20951;50.818;4.344;2023-03-21T14:33:40;15.20;99.90
34726;DHT22;20951;50.818;4.344;2023-03-21T14:36:29;15.20;99.90
34726;DHT22;20951;50.818;4.344;2023-03-21T14:39:06;14.90;99.90
34726;DHT22;20951;50.818;4.344;2023-03-21T14:41:49;15.00;99.90
34726;DHT22;20951;50.818;4.344;2023-03-21T14:44:34;14.90;99.90
34726;DHT22;20951;50.818;4.344;2023-03-21T14:47:06;14.70;99.90
34726;DHT22;20951;50.818;4.344;2023-03-21T14:49:36;14.90;99.90
34726;DHT22;20951;50.818;4.344;2023-03-21T14:52:09;14.80;99.90
34726;DHT22;20951;50.818;4.344;2023-03-21T14:54:39;14.90;99.90
34726;DHT22;20951;50.818;4.344;2023-03-21T14:57:12;15.00;99.90
34726;DHT22;20951;50.818;4.344;2023-03-21T14:59:39;15.00;99.90
34726;DHT22;20951;50.818;4.344;2023-03-21T15:02:16;14.90;99.90
34726;DHT22;20951;50.818;4.344;2023-03-21T15:04:47;15.10;99.90
34726;DHT22;20951;50.818;4.344;2023-03-21T15:07:30;15.10;99.90
34726;DHT22;20951;50.818;4.344;2023-03-21T15:10:03;15.20;99.90
34726;DHT22;20951;50.818;4.344;2023-03-21T15:12:32;15.00;99.90
34726;DHT22;20951;50.818;4.344;2023-03-21T15:14:59;15.00;99.90
34726;DHT22;20951;50.818;4.344;2023-03-21T15:17:26;14.90;99.90
34726;DHT22;20951;50.818;4.344;2023-03-21T15:19:52;14.80;99.90
34726;DHT22;20951;50.818;4.344;2023-03-21T15:22:37;14.70;99.90
34726;DHT22;20951;50.818;4.344;2023-03-21T15:25:06;14.60;99.90
34726;DHT22;20951;50.818;4.344;2023-03-21T15:27:37;14.50;99.90
34726;DHT22;20951;50.818;4.344;2023-03-21T15:30:05;14.40;99.90
34726;DHT22;20951;50.818;4.344;2023-03-21T15:32:34;14.50;99.90
34726;DHT22;20951;50.818;4.344;2023-03-21T15:35:14;14.40;99.90
34726;DHT22;20951;50.818;4.344;2023-03-21T15:37:40;14.40;99.90
34726;DHT22;20951;50.818;4.344;2023-03-21T15:40:18;14.40;99.90
34726;DHT22;20951;50.818;4.344;2023-03-21T15:42:45;14.30;99.90
34726;DHT22;20951;50.818;4.344;2023-03-21T15:45:23;14.40;99.90
34726;DHT22;20951;50.818;4.344;2023-03-21T15:48:01;14.20;99.90
34726;DHT22;20951;50.818;4.344;2023-03-21T15:50:34;14.10;99.90
34726;DHT22;20951;50.818;4.344;2023-03-21T15:53:04;14.10;99.90
34726;DHT22;20951;50.818;4.344;2023-03-21T15:55:46;14.10;99.90
34726;DHT22;20951;50.818;4.344;2023-03-21T15:58:22;14.10;99.90
34726;DHT22;20951;50.818;4.344;2023-03-21T16:00:51;14.00;99.90
34726;DHT22;20951;50.818;4.344;2023-03-21T16:03:30;13.90;99.90
34726;DHT22;20951;50.818;4.344;2023-03-21T16:13:48;13.90;99.90
34726;DHT22;20951;50.818;4.344;2023-03-21T16:16:25;13.90;99.90
34726;DHT22;20951;50.818;4.344;2023-03-21T16:18:52;13.90;99.90
34726;DHT22;20951;50.818;4.344;2023-03-21T16:21:21;14.00;99.90
34726;DHT22;20951;50.818;4.344;2023-03-21T16:23:48;14.00;99.90
34726;DHT22;20951;50.818;4.344;2023-03-21T16:26:19;13.90;99.90
34726;DHT22;20951;50.818;4.344;2023-03-21T16:28:46;13.80;99.90
34726;DHT22;20951;50.818;4.344;2023-03-21T16:31:15;13.80;99.90
34726;DHT22;20951;50.818;4.344;2023-03-21T16:33:42;14.00;99.90
34726;DHT22;20951;50.818;4.344;2023-03-21T16:36:28;13.90;99.90
34726;DHT22;20951;50.818;4.344;2023-03-21T16:38:55;13.90;99.90
34726;DHT22;20951;50.818;4.344;2023-03-21T16:41:22;13.90;99.90
34726;DHT22;20951;50.818;4.344;2023-03-21T16:43:49;13.80;99.90
34726;DHT22;20951;50.818;4.344;2023-03-21T16:46:20;13.90;99.90
34726;DHT22;20951;50.818;4.344;2023-03-21T16:48:49;13.90;99.90
34726;DHT22;20951;50.818;4.344;2023-03-21T16:51:18;13.80;99.90
34726;DHT22;20951;50.818;4.344;2023-03-21T16:53:44;13.70;99.90
34726;DHT22;20951;50.818;4.344;2023-03-21T16:56:19;13.60;99.90
34726;DHT22;20951;50.818;4.344;2023-03-21T16:58:46;13.60;99.90
34726;DHT22;20951;50.818;4.344;2023-03-21T17:01:13;13.70;99.90
34726;DHT22;20951;50.818;4.344;2023-03-21T17:03:40;13.70;99.90
34726;DHT22;20951;50.818;4.344;2023-03-21T17:06:08;13.80;99.90
34726;DHT22;20951;50.818;4.344;2023-03-21T17:08:37;13.80;99.90
34726;DHT22;20951;50.818;4.344;2023-03-21T17:11:03;13.70;99.90
34726;DHT22;20951;50.818;4.344;2023-03-21T17:13:31;13.70;99.90
34726;DHT22;20951;50.818;4.344;2023-03-21T17:15:57;13.80;99.90